Aeroporto :
LOGIN :

Iscrizione | Disclaimer

   EN    FR    IT 

 










Sommario :    VFR   VFR Marginale   IFR   IFR Intensivo   IFR Molto Intensivo
Visibilità : 
Base nubi : 
>= 8 km
>= 3000ft
5 / 8 km
1000 / 3000 ft
1500m / 5 km
500 / 1000 ft
800 / 1500m
200 / 500 ft
< 800m
< 200 ft
Simboli :   Temporali  Nebbia  Neve Forte  Precipitazioni Forti  Vento > 20 kt
SIGMETs :   Varie  Temporali  Ghiacco  Turbolenza  Onda orograficha  Ceneri Vulcaniche






- Altitudine del aeroporto : 3360 ft
- Codice IATA : QSF


DAAS - 8 Mai 45

ULTIMO METAR :
  • 080800Z 20003KT CAVOK 13/10 Q1024

METARs OBSOLETI :
  • 080700Z VRB02KT CAVOK 11/08 Q1024
  • 080600Z 00000KT CAVOK 07/04 Q1024

TAF TAF DAAS
Valido dal 08 a 06 ore il 09 a 06 ore UTC


080500Z 0806/0906 32006KT 9999 FEW030 SCT100
TEMPO 0812/0820 34012KT FEW026CB BKN033
PROB30
TEMPO 0814/0818 5000 -TSRA



MetMap, La meteo Aeronautica in un colpo d'occhio ! - Copyright ORBIFLY Dicembre 2007 - Disclaimer

ORBIFLY MET'MAP TEAM :

Programmazione e sviluppo : Alexandra Zaïnal
Concezione : Baudouin d'Aumeries
Aiuto per la programmazione : Marc-Olivier Méhu
Supporto tecnico e logistico : Manuel Goepfert
Aiuto per la traduzione : Arnaldo La Scala

Contatto : metmap@orbifly.com




FONTI E CREDITI :

   NOAA